X  Κλείσε Στοιχεία αεροπορικών μετεωρολογικών δεδομένων METAR     LGRX Patras Araxos Agamemnon Airport
Θερμοκρασία
21°C Θερμοκρασία
8°C Σημείο δρόσου
43% Υγρασία



Άνεμος
14 KM/H
9 MPH
4 M/S
8 KTS



20°
ΒΒΑ
Τρέχουσες Συνθήκες

Καθαρός Καθαρός
Πίεση 1023.92 (hPa) - 30.24 (inHg)
Ορατότητα 6.2 (μίλια) - 10 (km)
Aεροδρόμιο
Κωδικός Αεροδρομίου LGRX

Τοποθεσία: Patras Araxos Agamemnon Airport
Απόσταση: 108 (km)

Metar:
LGRX 060650Z 02008KT CAVOK 21/08 Q1024 RMK SCT180 BLU

ώρα: 06-10-2022 09:50 EEST